sensor_id;sensor_type;location;lat;lon;timestamp;temperature;humidity
57058;DHT22;55017;52.848;6.748;2023-04-29T00:01:08;10.90;99.90
57058;DHT22;55017;52.848;6.748;2023-04-29T00:03:34;10.70;99.90
57058;DHT22;55017;52.848;6.748;2023-04-29T00:06:00;10.60;99.90
57058;DHT22;55017;52.848;6.748;2023-04-29T00:08:26;10.80;99.90
57058;DHT22;55017;52.848;6.748;2023-04-29T00:10:51;10.70;99.90
57058;DHT22;55017;52.848;6.748;2023-04-29T00:13:17;10.60;99.90
57058;DHT22;55017;52.848;6.748;2023-04-29T00:15:43;10.60;99.90
57058;DHT22;55017;52.848;6.748;2023-04-29T00:18:09;10.60;99.90
57058;DHT22;55017;52.848;6.748;2023-04-29T00:20:35;10.60;99.90
57058;DHT22;55017;52.848;6.748;2023-04-29T00:23:02;10.50;99.90
57058;DHT22;55017;52.848;6.748;2023-04-29T00:25:28;10.50;99.90
57058;DHT22;55017;52.848;6.748;2023-04-29T00:27:53;10.50;99.90
57058;DHT22;55017;52.848;6.748;2023-04-29T00:30:19;10.40;99.90
57058;DHT22;55017;52.848;6.748;2023-04-29T00:32:44;10.40;99.90
57058;DHT22;55017;52.848;6.748;2023-04-29T00:35:11;10.40;99.90
57058;DHT22;55017;52.848;6.748;2023-04-29T00:37:36;10.50;99.90
57058;DHT22;55017;52.848;6.748;2023-04-29T00:40:02;10.50;99.90
57058;DHT22;55017;52.848;6.748;2023-04-29T00:42:30;10.50;99.90
57058;DHT22;55017;52.848;6.748;2023-04-29T00:44:58;10.50;99.90
57058;DHT22;55017;52.848;6.748;2023-04-29T00:47:23;10.40;99.90
57058;DHT22;55017;52.848;6.748;2023-04-29T00:49:49;10.40;99.90
57058;DHT22;55017;52.848;6.748;2023-04-29T00:52:14;10.50;99.90
57058;DHT22;55017;52.848;6.748;2023-04-29T00:54:41;10.40;99.90
57058;DHT22;55017;52.848;6.748;2023-04-29T00:57:06;10.40;99.90
57058;DHT22;55017;52.848;6.748;2023-04-29T00:59:32;10.40;99.90
57058;DHT22;55017;52.848;6.748;2023-04-29T01:02:03;10.40;99.90
57058;DHT22;55017;52.848;6.748;2023-04-29T01:04:29;10.50;99.90
57058;DHT22;55017;52.848;6.748;2023-04-29T01:07:08;10.40;99.90
57058;DHT22;55017;52.848;6.748;2023-04-29T01:09:46;10.40;99.90
57058;DHT22;55017;52.848;6.748;2023-04-29T01:17:40;10.40;99.90
57058;DHT22;55017;52.848;6.748;2023-04-29T01:20:08;10.30;99.90
57058;DHT22;55017;52.848;6.748;2023-04-29T01:22:35;10.20;99.90
57058;DHT22;55017;52.848;6.748;2023-04-29T01:25:01;10.30;99.90
57058;DHT22;55017;52.848;6.748;2023-04-29T01:27:42;10.30;99.90
57058;DHT22;55017;52.848;6.748;2023-04-29T01:33:09;10.20;99.90
57058;DHT22;55017;52.848;6.748;2023-04-29T01:43:58;10.10;99.90
57058;DHT22;55017;52.848;6.748;2023-04-29T01:46:26;10.20;99.90
57058;DHT22;55017;52.848;6.748;2023-04-29T01:48:53;10.10;99.90
57058;DHT22;55017;52.848;6.748;2023-04-29T01:51:19;10.20;99.90
57058;DHT22;55017;52.848;6.748;2023-04-29T01:53:45;10.20;99.90
57058;DHT22;55017;52.848;6.748;2023-04-29T01:56:10;10.10;99.90
57058;DHT22;55017;52.848;6.748;2023-04-29T01:58:36;10.20;99.90
57058;DHT22;55017;52.848;6.748;2023-04-29T02:01:02;10.20;99.90
57058;DHT22;55017;52.848;6.748;2023-04-29T02:03:27;10.00;99.90
57058;DHT22;55017;52.848;6.748;2023-04-29T02:05:53;10.00;99.90
57058;DHT22;55017;52.848;6.748;2023-04-29T02:08:19;10.00;99.90
57058;DHT22;55017;52.848;6.748;2023-04-29T02:10:54;10.00;99.90
57058;DHT22;55017;52.848;6.748;2023-04-29T02:13:20;10.10;99.90
57058;DHT22;55017;52.848;6.748;2023-04-29T02:15:46;10.00;99.90
57058;DHT22;55017;52.848;6.748;2023-04-29T02:18:12;10.00;99.90
57058;DHT22;55017;52.848;6.748;2023-04-29T02:20:37;10.00;99.90
57058;DHT22;55017;52.848;6.748;2023-04-29T02:23:03;10.10;99.90
57058;DHT22;55017;52.848;6.748;2023-04-29T02:25:28;10.00;99.90
57058;DHT22;55017;52.848;6.748;2023-04-29T02:27:54;10.10;99.90
57058;DHT22;55017;52.848;6.748;2023-04-29T02:30:19;10.00;99.90
57058;DHT22;55017;52.848;6.748;2023-04-29T02:32:45;10.00;99.90
57058;DHT22;55017;52.848;6.748;2023-04-29T02:35:11;10.10;99.90
57058;DHT22;55017;52.848;6.748;2023-04-29T02:37:37;10.00;99.90
57058;DHT22;55017;52.848;6.748;2023-04-29T02:40:03;10.10;99.90
57058;DHT22;55017;52.848;6.748;2023-04-29T02:42:29;10.00;99.90
57058;DHT22;55017;52.848;6.748;2023-04-29T02:44:55;10.10;99.90
57058;DHT22;55017;52.848;6.748;2023-04-29T02:47:20;10.10;99.90
57058;DHT22;55017;52.848;6.748;2023-04-29T02:49:46;10.10;99.90
57058;DHT22;55017;52.848;6.748;2023-04-29T02:52:12;10.10;99.90
57058;DHT22;55017;52.848;6.748;2023-04-29T02:54:38;10.10;99.90
57058;DHT22;55017;52.848;6.748;2023-04-29T02:57:03;10.00;99.90
57058;DHT22;55017;52.848;6.748;2023-04-29T02:59:29;10.10;99.90
57058;DHT22;55017;52.848;6.748;2023-04-29T03:01:54;10.00;99.90
57058;DHT22;55017;52.848;6.748;2023-04-29T03:04:21;10.10;99.90
57058;DHT22;55017;52.848;6.748;2023-04-29T03:06:47;10.00;99.90
57058;DHT22;55017;52.848;6.748;2023-04-29T03:09:13;10.10;99.90
57058;DHT22;55017;52.848;6.748;2023-04-29T03:11:39;10.00;99.90
57058;DHT22;55017;52.848;6.748;2023-04-29T03:14:04;10.00;99.90
57058;DHT22;55017;52.848;6.748;2023-04-29T03:16:30;9.90;99.90
57058;DHT22;55017;52.848;6.748;2023-04-29T03:18:56;10.00;99.90
57058;DHT22;55017;52.848;6.748;2023-04-29T03:21:22;9.90;99.90
57058;DHT22;55017;52.848;6.748;2023-04-29T03:23:49;9.80;99.90
57058;DHT22;55017;52.848;6.748;2023-04-29T03:26:15;9.80;99.90
57058;DHT22;55017;52.848;6.748;2023-04-29T03:28:40;9.80;99.90
57058;DHT22;55017;52.848;6.748;2023-04-29T03:31:06;9.90;99.90
57058;DHT22;55017;52.848;6.748;2023-04-29T03:33:32;9.90;99.90
57058;DHT22;55017;52.848;6.748;2023-04-29T03:35:57;9.70;99.90
57058;DHT22;55017;52.848;6.748;2023-04-29T03:38:23;9.80;99.90
57058;DHT22;55017;52.848;6.748;2023-04-29T03:40:50;9.80;99.90
57058;DHT22;55017;52.848;6.748;2023-04-29T03:43:16;9.80;99.90
57058;DHT22;55017;52.848;6.748;2023-04-29T03:45:42;9.70;99.90
57058;DHT22;55017;52.848;6.748;2023-04-29T03:48:08;9.70;99.90
57058;DHT22;55017;52.848;6.748;2023-04-29T03:50:35;9.70;99.90
57058;DHT22;55017;52.848;6.748;2023-04-29T03:53:01;9.70;99.90
57058;DHT22;55017;52.848;6.748;2023-04-29T03:55:26;9.80;99.90
57058;DHT22;55017;52.848;6.748;2023-04-29T03:57:52;10.50;99.90
57058;DHT22;55017;52.848;6.748;2023-04-29T04:00:18;10.20;99.90
57058;DHT22;55017;52.848;6.748;2023-04-29T04:02:43;10.00;99.90
57058;DHT22;55017;52.848;6.748;2023-04-29T04:05:09;9.90;99.90
57058;DHT22;55017;52.848;6.748;2023-04-29T04:07:35;9.80;99.90
57058;DHT22;55017;52.848;6.748;2023-04-29T04:10:00;9.80;99.90
57058;DHT22;55017;52.848;6.748;2023-04-29T04:12:26;9.80;99.90
57058;DHT22;55017;52.848;6.748;2023-04-29T04:14:51;9.80;99.90
57058;DHT22;55017;52.848;6.748;2023-04-29T04:17:18;9.70;99.90
57058;DHT22;55017;52.848;6.748;2023-04-29T04:19:44;9.70;99.90
57058;DHT22;55017;52.848;6.748;2023-04-29T04:22:09;9.70;99.90
57058;DHT22;55017;52.848;6.748;2023-04-29T04:24:36;9.80;99.90
57058;DHT22;55017;52.848;6.748;2023-04-29T04:27:01;9.80;99.90
57058;DHT22;55017;52.848;6.748;2023-04-29T04:29:27;9.70;99.90
57058;DHT22;55017;52.848;6.748;2023-04-29T04:31:52;9.70;99.90
57058;DHT22;55017;52.848;6.748;2023-04-29T04:34:18;9.70;99.90
57058;DHT22;55017;52.848;6.748;2023-04-29T04:36:44;9.70;99.90
57058;DHT22;55017;52.848;6.748;2023-04-29T04:39:10;9.70;99.90
57058;DHT22;55017;52.848;6.748;2023-04-29T04:41:35;9.60;99.90
57058;DHT22;55017;52.848;6.748;2023-04-29T04:44:01;9.60;99.90
57058;DHT22;55017;52.848;6.748;2023-04-29T04:46:27;9.60;99.90
57058;DHT22;55017;52.848;6.748;2023-04-29T04:48:52;9.70;99.90
57058;DHT22;55017;52.848;6.748;2023-04-29T04:51:18;9.70;99.90
57058;DHT22;55017;52.848;6.748;2023-04-29T04:53:44;9.60;99.90
57058;DHT22;55017;52.848;6.748;2023-04-29T04:56:09;9.60;99.90
57058;DHT22;55017;52.848;6.748;2023-04-29T04:58:35;9.60;99.90
57058;DHT22;55017;52.848;6.748;2023-04-29T05:01:00;9.50;99.90
57058;DHT22;55017;52.848;6.748;2023-04-29T05:03:26;9.70;99.90
57058;DHT22;55017;52.848;6.748;2023-04-29T05:05:56;9.70;99.90
57058;DHT22;55017;52.848;6.748;2023-04-29T05:08:21;9.50;99.90
57058;DHT22;55017;52.848;6.748;2023-04-29T05:10:47;9.70;99.90
57058;DHT22;55017;52.848;6.748;2023-04-29T05:13:13;9.60;99.90
57058;DHT22;55017;52.848;6.748;2023-04-29T05:15:38;9.50;99.90
57058;DHT22;55017;52.848;6.748;2023-04-29T05:18:04;9.50;99.90
57058;DHT22;55017;52.848;6.748;2023-04-29T05:20:29;9.50;99.90
57058;DHT22;55017;52.848;6.748;2023-04-29T05:22:55;9.60;99.90
57058;DHT22;55017;52.848;6.748;2023-04-29T05:25:21;9.50;99.90
57058;DHT22;55017;52.848;6.748;2023-04-29T05:27:47;9.60;99.90
57058;DHT22;55017;52.848;6.748;2023-04-29T05:30:12;9.50;99.90
57058;DHT22;55017;52.848;6.748;2023-04-29T05:32:38;9.50;99.90
57058;DHT22;55017;52.848;6.748;2023-04-29T05:35:04;9.50;99.90
57058;DHT22;55017;52.848;6.748;2023-04-29T05:37:29;9.50;99.90
57058;DHT22;55017;52.848;6.748;2023-04-29T05:39:56;9.60;99.90
57058;DHT22;55017;52.848;6.748;2023-04-29T05:42:22;9.60;99.90
57058;DHT22;55017;52.848;6.748;2023-04-29T05:44:48;9.60;99.90
57058;DHT22;55017;52.848;6.748;2023-04-29T05:47:14;9.60;99.90
57058;DHT22;55017;52.848;6.748;2023-04-29T05:49:40;9.70;99.90
57058;DHT22;55017;52.848;6.748;2023-04-29T05:52:05;9.60;99.90
57058;DHT22;55017;52.848;6.748;2023-04-29T05:54:32;9.60;99.90
57058;DHT22;55017;52.848;6.748;2023-04-29T05:56:58;9.60;99.90
57058;DHT22;55017;52.848;6.748;2023-04-29T05:59:29;9.60;99.90
57058;DHT22;55017;52.848;6.748;2023-04-29T06:01:56;9.70;99.90
57058;DHT22;55017;52.848;6.748;2023-04-29T06:04:22;9.70;99.90
57058;DHT22;55017;52.848;6.748;2023-04-29T06:06:48;9.60;99.90
57058;DHT22;55017;52.848;6.748;2023-04-29T06:09:13;9.80;99.90
57058;DHT22;55017;52.848;6.748;2023-04-29T06:11:42;9.80;99.90
57058;DHT22;55017;52.848;6.748;2023-04-29T06:14:09;9.70;99.90
57058;DHT22;55017;52.848;6.748;2023-04-29T06:16:35;9.70;99.90
57058;DHT22;55017;52.848;6.748;2023-04-29T06:19:01;9.70;99.90
57058;DHT22;55017;52.848;6.748;2023-04-29T06:21:27;9.70;99.90
57058;DHT22;55017;52.848;6.748;2023-04-29T06:23:55;9.80;99.90
57058;DHT22;55017;52.848;6.748;2023-04-29T06:26:21;9.80;99.90
57058;DHT22;55017;52.848;6.748;2023-04-29T06:28:47;9.80;99.90
57058;DHT22;55017;52.848;6.748;2023-04-29T06:31:12;9.90;99.90
57058;DHT22;55017;52.848;6.748;2023-04-29T06:33:38;9.90;99.90
57058;DHT22;55017;52.848;6.748;2023-04-29T06:36:04;9.90;99.90
57058;DHT22;55017;52.848;6.748;2023-04-29T06:38:29;10.00;99.90
57058;DHT22;55017;52.848;6.748;2023-04-29T06:40:55;10.00;99.90
57058;DHT22;55017;52.848;6.748;2023-04-29T06:43:25;10.10;99.90
57058;DHT22;55017;52.848;6.748;2023-04-29T06:45:51;10.10;99.90
57058;DHT22;55017;52.848;6.748;2023-04-29T06:48:16;10.20;99.90
57058;DHT22;55017;52.848;6.748;2023-04-29T06:50:56;10.20;99.90
57058;DHT22;55017;52.848;6.748;2023-04-29T06:53:22;10.20;99.90
57058;DHT22;55017;52.848;6.748;2023-04-29T06:55:48;10.30;99.90
57058;DHT22;55017;52.848;6.748;2023-04-29T06:58:15;10.50;99.90
57058;DHT22;55017;52.848;6.748;2023-04-29T07:00:45;10.50;99.90
57058;DHT22;55017;52.848;6.748;2023-04-29T07:03:11;10.40;99.90
57058;DHT22;55017;52.848;6.748;2023-04-29T07:05:37;10.70;99.90
57058;DHT22;55017;52.848;6.748;2023-04-29T07:08:07;10.60;99.90
57058;DHT22;55017;52.848;6.748;2023-04-29T07:10:33;10.70;99.90
57058;DHT22;55017;52.848;6.748;2023-04-29T07:12:58;10.80;99.90
57058;DHT22;55017;52.848;6.748;2023-04-29T07:15:25;10.90;99.90
57058;DHT22;55017;52.848;6.748;2023-04-29T07:17:51;11.00;99.90
57058;DHT22;55017;52.848;6.748;2023-04-29T07:20:17;11.10;99.90
57058;DHT22;55017;52.848;6.748;2023-04-29T07:22:42;11.20;99.90
57058;DHT22;55017;52.848;6.748;2023-04-29T07:25:08;11.40;99.90
57058;DHT22;55017;52.848;6.748;2023-04-29T07:27:35;11.40;99.90
57058;DHT22;55017;52.848;6.748;2023-04-29T07:30:02;11.40;99.90
57058;DHT22;55017;52.848;6.748;2023-04-29T07:32:28;11.50;99.90
57058;DHT22;55017;52.848;6.748;2023-04-29T07:34:53;11.70;99.90
57058;DHT22;55017;52.848;6.748;2023-04-29T07:37:19;11.90;99.90
57058;DHT22;55017;52.848;6.748;2023-04-29T07:39:44;12.20;99.90
57058;DHT22;55017;52.848;6.748;2023-04-29T07:42:10;12.30;99.90
57058;DHT22;55017;52.848;6.748;2023-04-29T07:44:36;12.80;99.90
57058;DHT22;55017;52.848;6.748;2023-04-29T07:47:01;12.70;99.90
57058;DHT22;55017;52.848;6.748;2023-04-29T07:49:27;13.00;99.90
57058;DHT22;55017;52.848;6.748;2023-04-29T07:51:53;13.20;99.90
57058;DHT22;55017;52.848;6.748;2023-04-29T07:54:18;13.30;99.90
57058;DHT22;55017;52.848;6.748;2023-04-29T07:56:47;13.30;99.90
57058;DHT22;55017;52.848;6.748;2023-04-29T07:59:13;13.50;99.90
57058;DHT22;55017;52.848;6.748;2023-04-29T08:01:40;13.70;99.90
57058;DHT22;55017;52.848;6.748;2023-04-29T08:04:05;14.60;99.90
57058;DHT22;55017;52.848;6.748;2023-04-29T08:06:32;14.00;99.90
57058;DHT22;55017;52.848;6.748;2023-04-29T08:08:58;14.00;99.90
57058;DHT22;55017;52.848;6.748;2023-04-29T08:11:23;14.10;99.90
57058;DHT22;55017;52.848;6.748;2023-04-29T08:13:50;14.20;99.90
57058;DHT22;55017;52.848;6.748;2023-04-29T08:16:16;14.20;99.90
57058;DHT22;55017;52.848;6.748;2023-04-29T08:18:42;14.20;99.90
57058;DHT22;55017;52.848;6.748;2023-04-29T08:21:08;14.30;99.90
57058;DHT22;55017;52.848;6.748;2023-04-29T08:23:38;14.30;99.90
57058;DHT22;55017;52.848;6.748;2023-04-29T08:26:04;14.50;99.90
57058;DHT22;55017;52.848;6.748;2023-04-29T08:28:30;14.60;99.20
57058;DHT22;55017;52.848;6.748;2023-04-29T08:30:56;14.80;99.90
57058;DHT22;55017;52.848;6.748;2023-04-29T08:33:22;15.00;99.60
57058;DHT22;55017;52.848;6.748;2023-04-29T08:35:48;15.00;98.60
57058;DHT22;55017;52.848;6.748;2023-04-29T08:38:14;15.10;97.80
57058;DHT22;55017;52.848;6.748;2023-04-29T08:40:44;15.20;97.40
57058;DHT22;55017;52.848;6.748;2023-04-29T08:43:12;15.10;96.00
57058;DHT22;55017;52.848;6.748;2023-04-29T08:45:38;15.10;95.70
57058;DHT22;55017;52.848;6.748;2023-04-29T08:48:06;15.10;94.70
57058;DHT22;55017;52.848;6.748;2023-04-29T08:50:36;15.00;94.70
57058;DHT22;55017;52.848;6.748;2023-04-29T08:53:04;15.10;94.20
57058;DHT22;55017;52.848;6.748;2023-04-29T08:55:30;15.30;93.80
57058;DHT22;55017;52.848;6.748;2023-04-29T08:57:56;15.60;94.50
57058;DHT22;55017;52.848;6.748;2023-04-29T09:00:23;15.70;92.80
57058;DHT22;55017;52.848;6.748;2023-04-29T09:02:50;15.90;91.90
57058;DHT22;55017;52.848;6.748;2023-04-29T09:05:16;16.00;91.60
57058;DHT22;55017;52.848;6.748;2023-04-29T09:07:43;16.30;90.60
57058;DHT22;55017;52.848;6.748;2023-04-29T09:10:09;16.40;89.80
57058;DHT22;55017;52.848;6.748;2023-04-29T09:12:35;16.60;89.00
57058;DHT22;55017;52.848;6.748;2023-04-29T09:15:01;16.70;87.60
57058;DHT22;55017;52.848;6.748;2023-04-29T09:17:45;16.70;86.00
57058;DHT22;55017;52.848;6.748;2023-04-29T09:22:51;16.50;83.60
57058;DHT22;55017;52.848;6.748;2023-04-29T09:25:17;16.30;83.60
57058;DHT22;55017;52.848;6.748;2023-04-29T09:27:43;16.00;85.10
57058;DHT22;55017;52.848;6.748;2023-04-29T09:30:08;16.20;85.00
57058;DHT22;55017;52.848;6.748;2023-04-29T09:32:35;15.90;83.10
57058;DHT22;55017;52.848;6.748;2023-04-29T09:35:20;15.70;83.50
57058;DHT22;55017;52.848;6.748;2023-04-29T09:37:46;15.90;84.50
57058;DHT22;55017;52.848;6.748;2023-04-29T09:40:27;16.10;85.90
57058;DHT22;55017;52.848;6.748;2023-04-29T09:42:54;16.50;84.80
57058;DHT22;55017;52.848;6.748;2023-04-29T09:45:37;16.60;84.00
57058;DHT22;55017;52.848;6.748;2023-04-29T09:48:04;17.10;83.30
57058;DHT22;55017;52.848;6.748;2023-04-29T09:50:31;17.20;81.10
57058;DHT22;55017;52.848;6.748;2023-04-29T09:52:57;17.10;78.40
57058;DHT22;55017;52.848;6.748;2023-04-29T09:55:23;17.10;79.50
57058;DHT22;55017;52.848;6.748;2023-04-29T09:57:49;17.30;80.00
57058;DHT22;55017;52.848;6.748;2023-04-29T10:00:14;17.40;79.40
57058;DHT22;55017;52.848;6.748;2023-04-29T10:02:45;17.70;76.60
57058;DHT22;55017;52.848;6.748;2023-04-29T10:05:14;17.80;74.10
57058;DHT22;55017;52.848;6.748;2023-04-29T10:07:41;17.70;74.50
57058;DHT22;55017;52.848;6.748;2023-04-29T10:10:08;17.80;74.60
57058;DHT22;55017;52.848;6.748;2023-04-29T10:12:36;17.80;73.20
57058;DHT22;55017;52.848;6.748;2023-04-29T10:15:34;17.70;72.60
57058;DHT22;55017;52.848;6.748;2023-04-29T10:18:16;17.40;72.40
57058;DHT22;55017;52.848;6.748;2023-04-29T10:20:45;17.30;74.00
57058;DHT22;55017;52.848;6.748;2023-04-29T10:23:12;17.60;74.50
57058;DHT22;55017;52.848;6.748;2023-04-29T10:25:40;17.80;72.40
57058;DHT22;55017;52.848;6.748;2023-04-29T10:28:11;17.60;70.10
57058;DHT22;55017;52.848;6.748;2023-04-29T10:30:43;17.60;70.10
57058;DHT22;55017;52.848;6.748;2023-04-29T10:33:10;17.60;70.60
57058;DHT22;55017;52.848;6.748;2023-04-29T10:35:37;17.40;70.40
57058;DHT22;55017;52.848;6.748;2023-04-29T10:38:12;17.40;70.10
57058;DHT22;55017;52.848;6.748;2023-04-29T10:40:44;17.30;68.40
57058;DHT22;55017;52.848;6.748;2023-04-29T10:43:11;17.30;69.90
57058;DHT22;55017;52.848;6.748;2023-04-29T10:45:37;17.50;69.10
57058;DHT22;55017;52.848;6.748;2023-04-29T10:53:02;16.90;69.60
57058;DHT22;55017;52.848;6.748;2023-04-29T10:55:28;16.70;69.80
57058;DHT22;55017;52.848;6.748;2023-04-29T10:57:55;16.50;68.90
57058;DHT22;55017;52.848;6.748;2023-04-29T11:00:32;16.80;71.40
57058;DHT22;55017;52.848;6.748;2023-04-29T11:03:00;17.10;71.50
57058;DHT22;55017;52.848;6.748;2023-04-29T11:05:34;17.40;71.30
57058;DHT22;55017;52.848;6.748;2023-04-29T11:08:12;17.70;70.60
57058;DHT22;55017;52.848;6.748;2023-04-29T11:10:41;18.10;67.90
57058;DHT22;55017;52.848;6.748;2023-04-29T11:13:23;18.10;65.90
57058;DHT22;55017;52.848;6.748;2023-04-29T11:15:51;18.40;64.00
57058;DHT22;55017;52.848;6.748;2023-04-29T11:18:17;18.50;62.10
57058;DHT22;55017;52.848;6.748;2023-04-29T11:23:33;18.70;62.60
57058;DHT22;55017;52.848;6.748;2023-04-29T11:26:00;18.90;62.90
57058;DHT22;55017;52.848;6.748;2023-04-29T11:28:26;19.00;61.10
57058;DHT22;55017;52.848;6.748;2023-04-29T11:30:52;19.20;61.30
57058;DHT22;55017;52.848;6.748;2023-04-29T11:33:22;19.40;59.50
57058;DHT22;55017;52.848;6.748;2023-04-29T11:35:48;19.40;58.90
57058;DHT22;55017;52.848;6.748;2023-04-29T11:38:13;19.50;59.20
57058;DHT22;55017;52.848;6.748;2023-04-29T11:40:48;19.70;58.50
57058;DHT22;55017;52.848;6.748;2023-04-29T11:43:18;19.70;57.50
57058;DHT22;55017;52.848;6.748;2023-04-29T11:45:44;19.70;58.00
57058;DHT22;55017;52.848;6.748;2023-04-29T11:48:25;19.80;57.70
57058;DHT22;55017;52.848;6.748;2023-04-29T11:50:54;19.80;57.20
57058;DHT22;55017;52.848;6.748;2023-04-29T11:53:23;20.00;57.90
57058;DHT22;55017;52.848;6.748;2023-04-29T11:55:51;20.10;57.70
57058;DHT22;55017;52.848;6.748;2023-04-29T11:58:19;20.20;57.60
57058;DHT22;55017;52.848;6.748;2023-04-29T12:00:49;20.40;57.40
57058;DHT22;55017;52.848;6.748;2023-04-29T12:03:17;20.30;56.40
57058;DHT22;55017;52.848;6.748;2023-04-29T12:05:47;20.20;56.60
57058;DHT22;55017;52.848;6.748;2023-04-29T12:08:21;20.20;57.30
57058;DHT22;55017;52.848;6.748;2023-04-29T12:10:48;20.10;56.10
57058;DHT22;55017;52.848;6.748;2023-04-29T12:13:18;19.90;56.20
57058;DHT22;55017;52.848;6.748;2023-04-29T12:15:44;19.80;56.80
57058;DHT22;55017;52.848;6.748;2023-04-29T12:18:12;19.70;56.20
57058;DHT22;55017;52.848;6.748;2023-04-29T12:20:38;19.80;56.60
57058;DHT22;55017;52.848;6.748;2023-04-29T12:23:15;19.90;57.50
57058;DHT22;55017;52.848;6.748;2023-04-29T12:25:53;19.80;57.90
57058;DHT22;55017;52.848;6.748;2023-04-29T12:28:20;19.80;57.90
57058;DHT22;55017;52.848;6.748;2023-04-29T12:30:46;19.60;57.20
57058;DHT22;55017;52.848;6.748;2023-04-29T12:33:19;19.40;56.90
57058;DHT22;55017;52.848;6.748;2023-04-29T12:35:50;19.30;57.80
57058;DHT22;55017;52.848;6.748;2023-04-29T12:38:26;19.20;56.20
57058;DHT22;55017;52.848;6.748;2023-04-29T12:40:53;19.20;57.90
57058;DHT22;55017;52.848;6.748;2023-04-29T12:43:19;19.20;58.00
57058;DHT22;55017;52.848;6.748;2023-04-29T12:45:44;19.50;58.00
57058;DHT22;55017;52.848;6.748;2023-04-29T12:48:10;19.40;57.00
57058;DHT22;55017;52.848;6.748;2023-04-29T12:50:38;19.50;56.50
57058;DHT22;55017;52.848;6.748;2023-04-29T12:53:04;19.90;56.80
57058;DHT22;55017;52.848;6.748;2023-04-29T12:55:34;19.70;56.80
57058;DHT22;55017;52.848;6.748;2023-04-29T12:58:04;19.90;56.80
57058;DHT22;55017;52.848;6.748;2023-04-29T13:00:30;20.00;57.50
57058;DHT22;55017;52.848;6.748;2023-04-29T13:02:56;20.10;54.30
57058;DHT22;55017;52.848;6.748;2023-04-29T13:05:22;20.20;54.70
57058;DHT22;55017;52.848;6.748;2023-04-29T13:07:48;20.10;53.10
57058;DHT22;55017;52.848;6.748;2023-04-29T13:10:14;20.10;53.20
57058;DHT22;55017;52.848;6.748;2023-04-29T13:12:40;20.10;52.40
57058;DHT22;55017;52.848;6.748;2023-04-29T13:15:07;20.10;52.70
57058;DHT22;55017;52.848;6.748;2023-04-29T13:17:36;20.10;52.20
57058;DHT22;55017;52.848;6.748;2023-04-29T13:20:05;20.10;51.70
57058;DHT22;55017;52.848;6.748;2023-04-29T13:22:31;20.20;51.50
57058;DHT22;55017;52.848;6.748;2023-04-29T13:24:57;20.30;52.50
57058;DHT22;55017;52.848;6.748;2023-04-29T13:27:22;20.30;51.60
57058;DHT22;55017;52.848;6.748;2023-04-29T13:29:48;20.60;51.40
57058;DHT22;55017;52.848;6.748;2023-04-29T13:32:14;20.50;50.10
57058;DHT22;55017;52.848;6.748;2023-04-29T13:34:40;20.60;50.80
57058;DHT22;55017;52.848;6.748;2023-04-29T13:37:08;20.40;50.40
57058;DHT22;55017;52.848;6.748;2023-04-29T13:39:34;20.60;51.00
57058;DHT22;55017;52.848;6.748;2023-04-29T13:42:00;20.60;50.10
57058;DHT22;55017;52.848;6.748;2023-04-29T13:44:26;20.60;49.80
57058;DHT22;55017;52.848;6.748;2023-04-29T13:46:51;20.80;49.30
57058;DHT22;55017;52.848;6.748;2023-04-29T13:49:17;20.90;49.40
57058;DHT22;55017;52.848;6.748;2023-04-29T13:51:42;21.10;49.10
57058;DHT22;55017;52.848;6.748;2023-04-29T13:54:08;21.10;49.10
57058;DHT22;55017;52.848;6.748;2023-04-29T13:56:34;21.20;49.70
57058;DHT22;55017;52.848;6.748;2023-04-29T13:58:59;21.20;50.30
57058;DHT22;55017;52.848;6.748;2023-04-29T14:01:25;21.10;50.10
57058;DHT22;55017;52.848;6.748;2023-04-29T14:03:52;21.20;49.30
57058;DHT22;55017;52.848;6.748;2023-04-29T14:06:17;21.20;49.20
57058;DHT22;55017;52.848;6.748;2023-04-29T14:08:43;21.10;47.70
57058;DHT22;55017;52.848;6.748;2023-04-29T14:11:09;21.20;48.60
57058;DHT22;55017;52.848;6.748;2023-04-29T14:13:35;21.20;48.00
57058;DHT22;55017;52.848;6.748;2023-04-29T14:16:00;21.20;48.20
57058;DHT22;55017;52.848;6.748;2023-04-29T14:18:28;21.20;48.10
57058;DHT22;55017;52.848;6.748;2023-04-29T14:20:55;21.20;48.10
57058;DHT22;55017;52.848;6.748;2023-04-29T14:23:20;21.00;46.90
57058;DHT22;55017;52.848;6.748;2023-04-29T14:25:46;21.00;47.30
57058;DHT22;55017;52.848;6.748;2023-04-29T14:28:12;20.90;47.30
57058;DHT22;55017;52.848;6.748;2023-04-29T14:30:38;21.00;47.80
57058;DHT22;55017;52.848;6.748;2023-04-29T14:33:03;20.90;48.10
57058;DHT22;55017;52.848;6.748;2023-04-29T14:35:29;20.80;47.20
57058;DHT22;55017;52.848;6.748;2023-04-29T14:37:55;20.80;48.10
57058;DHT22;55017;52.848;6.748;2023-04-29T14:40:21;20.90;48.50
57058;DHT22;55017;52.848;6.748;2023-04-29T14:42:47;20.70;48.60
57058;DHT22;55017;52.848;6.748;2023-04-29T14:45:12;20.70;48.60
57058;DHT22;55017;52.848;6.748;2023-04-29T14:47:38;20.60;48.40
57058;DHT22;55017;52.848;6.748;2023-04-29T14:50:04;20.40;48.30
57058;DHT22;55017;52.848;6.748;2023-04-29T14:52:29;20.30;48.70
57058;DHT22;55017;52.848;6.748;2023-04-29T14:54:55;20.20;49.10
57058;DHT22;55017;52.848;6.748;2023-04-29T14:57:21;20.10;50.20
57058;DHT22;55017;52.848;6.748;2023-04-29T14:59:46;20.20;50.30
57058;DHT22;55017;52.848;6.748;2023-04-29T15:02:12;20.00;49.10
57058;DHT22;55017;52.848;6.748;2023-04-29T15:04:38;20.00;49.70
57058;DHT22;55017;52.848;6.748;2023-04-29T15:07:07;19.90;50.60
57058;DHT22;55017;52.848;6.748;2023-04-29T15:09:32;19.80;50.30
57058;DHT22;55017;52.848;6.748;2023-04-29T15:11:58;19.70;50.20
57058;DHT22;55017;52.848;6.748;2023-04-29T15:14:24;19.60;50.10
57058;DHT22;55017;52.848;6.748;2023-04-29T15:16:49;19.40;50.90
57058;DHT22;55017;52.848;6.748;2023-04-29T15:19:15;19.20;52.40
57058;DHT22;55017;52.848;6.748;2023-04-29T15:21:41;19.30;53.20
57058;DHT22;55017;52.848;6.748;2023-04-29T15:24:06;19.20;54.50
57058;DHT22;55017;52.848;6.748;2023-04-29T15:26:32;19.00;54.90
57058;DHT22;55017;52.848;6.748;2023-04-29T15:28:58;18.90;55.60
57058;DHT22;55017;52.848;6.748;2023-04-29T15:31:25;18.80;55.90
57058;DHT22;55017;52.848;6.748;2023-04-29T15:33:53;18.70;56.30
57058;DHT22;55017;52.848;6.748;2023-04-29T15:36:27;18.50;56.60
57058;DHT22;55017;52.848;6.748;2023-04-29T15:38:53;18.40;57.20
57058;DHT22;55017;52.848;6.748;2023-04-29T15:41:19;18.30;58.00
57058;DHT22;55017;52.848;6.748;2023-04-29T15:43:46;18.30;58.20
57058;DHT22;55017;52.848;6.748;2023-04-29T15:46:11;18.10;58.70
57058;DHT22;55017;52.848;6.748;2023-04-29T15:48:37;18.10;58.90
57058;DHT22;55017;52.848;6.748;2023-04-29T15:51:02;18.00;58.60
57058;DHT22;55017;52.848;6.748;2023-04-29T15:53:28;17.90;59.60
57058;DHT22;55017;52.848;6.748;2023-04-29T15:55:54;17.80;60.60
57058;DHT22;55017;52.848;6.748;2023-04-29T15:58:19;17.50;61.10
57058;DHT22;55017;52.848;6.748;2023-04-29T16:00:45;17.40;62.30